Latest Weather Observations for Tarcoola

IDS60801

Issued at 7:11 pm CDT Sunday 24 January 2021 (issued every 10 minutes, with the page automatically refreshed every 10 minutes)

About weather observations | Map of weather stations | Latest weather observations for SA | Other Formats
Station Details ID: 016098 Name: TARCOOLA AERO Lat: -30.71 Lon: 134.58 Height: 123.0 m
Data from the previous 72 hours. | See also: Recent months at Tarcoola
Date/Time
CDT
Temp
°C
App
Temp
°C
Dew
Point
°C
Rel
Hum
%
Delta-T
°C
Wind Press
QNH
hPa
Press
MSL
hPa
Rain since
9am
mm
Dir  Spd
km/h
Gust
km/h
Spd
kts
Gust
kts
24/07:00pm 34.1 30.2 10.7 24 13.8 E 22 28 12 15 1000.7 999.9 0.0
24/06:30pm 33.6 29.7 12.0 27 12.9 ESE 24 35 13 19 1001.1 1000.3 0.0
24/06:00pm 35.0 30.7 9.4 21 14.8 E 22 30 12 16 1001.4 1000.6 0.0
24/05:30pm 35.0 32.4 9.4 21 14.8 E 13 17 7 9 1002.0 1001.2 0.0
24/05:00pm 35.2 32.7 8.1 19 15.3 NE 11 17 6 9 1002.4 1001.7 0.0
24/04:30pm 34.9 31.9 7.9 19 15.2 N 13 19 7 10 1002.9 1002.2 0.0
24/04:00pm 35.0 31.9 8.7 20 15.0 NNE 15 24 8 13 1003.7 1002.9 0.0
24/03:30pm 34.9 32.5 10.0 22 14.5 N 13 19 7 10 1004.2 1003.4 0.0
24/03:00pm 34.7 30.9 9.2 21 14.7 N 19 26 10 14 1004.3 1003.5 0.0
24/02:30pm 35.3 29.8 7.4 18 15.7 N 26 39 14 21 1004.3 1003.5 0.0
24/02:00pm 36.6 31.4 3.7 13 17.5 ENE 20 28 11 15 1004.0 1003.2 0.0
24/01:30pm 36.7 30.8 3.8 13 17.6 E 24 30 13 16 1003.8 1003.0 0.0
24/01:00pm 35.9 30.9 7.9 18 15.8 ESE 24 33 13 18 1004.0 1003.2 0.0
24/12:30pm 33.4 30.2 10.1 24 13.5 ESE 17 20 9 11 1004.7 1003.9 0.0
24/12:00pm 31.4 29.2 10.7 28 12.0 SE 13 19 7 10 1005.0 1004.2 0.0
24/11:30am 29.8 26.6 11.3 32 10.8 SE 19 24 10 13 1005.2 1004.4 0.0
24/11:00am 28.8 25.6 11.4 34 10.1 SSE 19 26 10 14 1005.6 1004.8 0.0
24/10:30am 28.2 24.7 12.1 37 9.4 SSW 22 33 12 18 1005.5 1004.7 0.0
24/10:00am 28.0 23.4 12.4 38 9.1 SSW 28 39 15 21 1005.6 1004.8 0.0
24/09:30am 28.2 24.4 12.5 37 9.2 SSW 24 33 13 18 1005.8 1005.0 0.0
24/09:00am 27.7 23.4 12.1 38 9.1 S 26 41 14 22 1005.8 1005.0 0.0
24/08:47am 27.4 22.8 12.2 39 8.8 SSW 28 46 15 25 1005.7 1004.9 0.0
24/08:30am 27.3 23.5 12.5 40 8.7 SW 24 35 13 19 1007.1 1006.3 0.0
24/08:00am 26.9 23.7 11.8 39 8.7 W 20 26 11 14 1007.6 1006.8 0.0
24/07:30am 26.9 24.6 11.8 39 8.7 WSW 15 20 8 11 1006.9 1006.1 0.0
24/07:00am 26.7 24.2 11.2 38 8.8 SSW 15 19 8 10 1005.3 1004.5 0.0
24/06:30am 26.8 23.6 11.3 38 8.9 SSW 19 28 10 15 1005.2 1004.4 0.0
24/06:00am 26.9 23.5 11.4 38 8.9 SW 20 33 11 18 1004.9 1004.1 0.0
24/05:30am 27.2 23.8 11.3 37 9.1 SSW 20 30 11 16 1004.7 1003.9 0.0
24/05:00am 27.6 23.7 10.8 35 9.6 SSW 22 30 12 16 1004.5 1003.7 0.0
24/04:30am 28.0 23.3 10.7 34 9.9 SW 26 35 14 19 1004.7 1003.9 0.0
24/04:00am 28.8 24.3 10.0 31 10.6 SW 24 33 13 18 1004.5 1003.7 0.0
24/03:30am 29.7 23.2 8.2 26 11.9 WSW 32 41 17 22 1004.3 1003.5 0.0
24/03:19am 30.1 23.4 7.3 24 12.4 WSW 32 50 17 27 1004.3 1003.5 0.0
24/03:00am 32.1 26.4 4.8 18 14.5 WSW 24 43 13 23 1004.0 1003.2 0.0
24/02:59am 32.7 27.1 3.6 16 15.1 WSW 22 43 12 23 1004.0 1003.2 0.0
24/02:30am 34.6 29.4 -2.9 9 17.8 NE 15 20 8 11 1003.2 1002.5 0.0
24/02:00am 35.3 29.2 -2.3 9 18.0 ENE 20 26 11 14 1003.4 1002.7 0.0
24/01:30am 35.3 29.4 -2.3 9 18.1 E 19 24 10 13 1003.8 1003.0 0.0
24/01:00am 35.5 30.0 -2.2 9 18.1 E 17 20 9 11 1004.2 1003.4 0.0
24/12:30am 35.7 30.6 -2.0 9 18.3 E 15 20 8 11 1004.3 1003.5 0.0
24/12:00am 36.0 30.9 -1.8 9 18.4 E 15 19 8 10 1004.5 1003.7 0.0
 
Date/Time
CDT
Temp
°C
App
Temp
°C
Dew
Point
°C
Rel
Hum
%
Delta-T
°C
Wind Press
QNH
hPa
Press
MSL
hPa
Rain since
9am
mm
Dir  Spd
km/h
Gust
km/h
Spd
kts
Gust
kts
23/11:30pm 36.8 31.0 -1.2 9 18.8 ESE 19 26 10 14 1004.7 1003.9 0.0
23/11:00pm 37.5 31.6 -0.7 9 19.0 ESE 20 28 11 15 1004.6 1003.8 0.0
23/10:30pm 38.0 32.1 -1.9 8 19.7 ESE 19 24 10 13 1004.7 1003.9 0.0
23/10:00pm 38.6 32.6 -1.5 8 19.9 ESE 20 26 11 14 1004.5 1003.7 0.0
23/09:30pm 39.1 33.4 -1.1 8 20.2 ESE 19 24 10 13 1004.3 1003.5 0.0
23/09:00pm 39.3 34.7 -1.0 8 20.3 ESE 13 17 7 9 1003.9 1003.1 0.0
23/08:30pm 40.4 35.5 -0.2 8 20.8 ESE 15 20 8 11 1003.7 1002.9 0.0
23/08:00pm 41.4 36.4 -1.3 7 21.6 E 15 22 8 12 1003.6 1002.8 0.0
23/07:30pm 41.9 36.2 -0.9 7 21.9 E 19 28 10 15 1003.3 1002.6 0.0
23/07:00pm 42.8 38.3 -0.3 7 22.3 ESE 13 20 7 11 1003.2 1002.5 0.0
23/06:30pm 42.7 38.2 -0.4 7 22.3 NE 13 20 7 11 1003.1 1002.4 0.0
23/06:00pm 43.3 39.6 0.1 7 22.6 N 9 20 5 11 1003.3 1002.6 0.0
23/05:30pm 42.9 39.2 -0.2 7 22.4 SSE 9 17 5 9 1003.7 1002.9 0.0
23/05:00pm 44.0 39.7 -1.5 6 23.3 ENE 11 26 6 14 1003.9 1003.1 0.0
23/04:30pm 43.7 39.3 0.4 7 22.8 ENE 13 20 7 11 1004.3 1003.5 0.0
23/04:00pm 43.4 39.0 0.1 7 22.6 NW 13 20 7 11 1004.5 1003.7 0.0
23/03:30pm 42.7 37.4 -0.4 7 22.3 NNE 17 30 9 16 1004.8 1004.0 0.0
23/03:00pm 42.8 38.3 -0.3 7 22.4 NNE 13 26 7 14 1005.1 1004.3 0.0
23/02:30pm 42.4 37.1 -0.6 7 22.2 N 17 26 9 14 1005.4 1004.6 0.0
23/02:00pm 42.4 36.2 -0.6 7 22.1 NNE 22 39 12 21 1005.7 1004.9 0.0
23/01:30pm 42.4 36.7 -0.6 7 22.2 N 19 30 10 16 1006.1 1005.3 0.0
23/01:00pm 42.5 36.6 -0.5 7 22.2 NNW 20 37 11 20 1006.5 1005.7 0.0
23/12:30pm 41.4 35.1 -1.3 7 21.7 NNE 22 28 12 15 1006.9 1006.1 0.0
23/12:00pm 40.8 34.4 -1.7 7 21.3 NNE 22 37 12 20 1007.2 1006.4 0.0
23/11:30am 39.8 33.9 -0.6 8 20.5 NE 20 28 11 15 1007.5 1006.7 0.0
23/11:00am 38.5 32.5 -1.6 8 19.8 NE 20 28 11 15 1007.8 1007.0 0.0
23/10:30am 36.8 31.0 -1.2 9 18.8 ENE 19 26 10 14 1008.1 1007.3 0.0
23/10:00am 35.0 29.6 -1.1 10 17.6 NE 17 20 9 11 1008.4 1007.6 0.0
23/09:30am 33.0 28.0 -1.4 11 16.5 NE 15 20 8 11 1008.6 1007.8 0.0
23/09:00am 31.2 25.8 -1.5 12 15.5 NE 17 24 9 13 1008.6 1007.8 0.0
23/08:30am 29.7 24.6 -1.6 13 14.6 NE 15 20 8 11 1008.6 1007.8 0.0
23/08:00am 29.1 23.8 -3.2 12 14.6 NE 15 24 8 13 1008.6 1007.8 0.0
23/07:30am 27.4 21.7 -3.4 13 13.7 ENE 17 20 9 11 1007.9 1007.1 0.0
23/07:00am 26.7 20.7 -3.0 14 13.2 ENE 19 22 10 12 1007.6 1006.8 0.0
23/06:30am 27.3 20.7 -3.5 13 13.7 E 22 32 12 17 1007.2 1006.4 0.0
23/06:00am 27.6 20.2 -3.3 13 13.8 E 26 32 14 17 1007.0 1006.2 0.0
23/05:30am 27.9 20.8 -4.1 12 14.1 E 24 30 13 16 1007.0 1006.2 0.0
23/05:00am 28.3 21.3 -3.8 12 14.2 E 24 32 13 17 1007.0 1006.2 0.0
23/04:30am 28.5 21.9 -3.6 12 14.3 E 22 30 12 16 1006.9 1006.1 0.0
23/04:00am 28.9 22.3 -3.3 12 14.5 E 22 32 12 17 1006.9 1006.1 0.0
23/03:30am 29.7 23.0 -3.9 11 15.1 E 22 32 12 17 1006.9 1006.1 0.0
23/03:00am 30.6 23.6 -3.2 11 15.5 ESE 24 32 13 17 1007.0 1006.2 0.0
23/02:30am 31.3 24.4 -2.6 11 15.7 ESE 24 33 13 18 1007.3 1006.5 0.0
23/02:00am 31.7 25.6 -2.3 11 15.9 ESE 20 28 11 15 1007.4 1006.6 0.0
23/01:30am 30.2 26.0 -1.2 13 14.8 ESE 11 15 6 8 1007.3 1006.5 0.0
23/01:00am 31.2 26.9 -1.5 12 15.4 E 11 15 6 8 1007.4 1006.6 0.0
23/12:30am 32.4 27.9 -0.6 12 16.0 ESE 13 17 7 9 1007.6 1006.8 0.0
23/12:00am 32.8 28.3 -0.3 12 16.2 SE 13 17 7 9 1007.7 1006.9 0.0
 
Date/Time
CDT
Temp
°C
App
Temp
°C
Dew
Point
°C
Rel
Hum
%
Delta-T
°C
Wind Press
QNH
hPa
Press
MSL
hPa
Rain since
9am
mm
Dir  Spd
km/h
Gust
km/h
Spd
kts
Gust
kts
22/11:30pm 30.3 26.8 -1.2 13 14.9 S 7 9 4 5 1007.7 1006.9 0.0
22/11:00pm 32.5 28.4 -0.5 12 16.0 SE 11 13 6 7 1007.5 1006.7 0.0
22/10:30pm 33.8 29.6 -0.7 11 16.8 SE 11 13 6 7 1007.5 1006.7 0.0
22/10:00pm 35.5 30.9 -0.8 10 17.8 ESE 13 15 7 8 1007.4 1006.6 0.0
22/09:30pm 37.0 32.2 0.4 10 18.6 SE 15 17 8 9 1007.2 1006.4 0.0
22/09:00pm 38.1 32.8 -0.3 9 19.4 ESE 17 20 9 11 1006.9 1006.1 0.0
22/08:30pm 39.1 34.7 0.5 9 19.8 S 13 19 7 10 1006.7 1005.9 0.0
22/08:00pm 40.1 35.1 1.2 9 20.3 SSE 17 30 9 16 1006.5 1005.7 0.0
22/07:30pm 40.7 36.5 1.7 9 20.6 S 13 20 7 11 1006.2 1005.4 0.0
22/07:00pm 41.3 35.8 0.5 8 21.2 SSE 19 30 10 16 1006.0 1005.2 0.0
22/06:30pm 41.5 37.1 0.6 8 21.4 SSW 13 26 7 14 1006.1 1005.3 0.0
22/06:00pm 41.7 36.6 0.8 8 21.4 S 17 32 9 17 1006.3 1005.5 0.0
22/05:30pm 41.6 36.9 0.7 8 21.4 SSW 15 22 8 12 1006.5 1005.7 0.0
22/05:00pm 42.1 38.6 1.1 8 21.6 WNW 9 24 5 13 1006.7 1005.9 0.0
22/04:30pm 40.9 36.5 0.2 8 21.0 S 13 20 7 11 1007.2 1006.4 0.0
22/04:00pm 41.9 37.6 0.9 8 21.5 WSW 13 26 7 14 1007.5 1006.7 0.0
22/03:30pm 41.2 36.4 0.4 8 21.2 WNW 15 24 8 13 1007.7 1006.9 0.0
22/03:00pm 41.3 36.5 0.5 8 21.2 SW 15 28 8 15 1008.2 1007.4 0.0
22/02:30pm 41.0 38.0 1.9 9 20.7 ENE 7 13 4 7 1008.6 1007.8 0.0
22/02:00pm 40.8 36.6 1.7 9 20.6 WSW 13 20 7 11 1009.0 1008.2 0.0
22/01:30pm 40.4 36.9 1.4 9 20.5 ESE 9 17 5 9 1009.4 1008.6 0.0
22/01:00pm 39.1 36.1 1.9 10 19.5 W 7 15 4 8 1009.8 1009.1 0.0
22/12:30pm 39.2 36.2 2.0 10 19.6 W 7 17 4 9 1010.1 1009.4 0.0
22/12:00pm 38.0 34.5 1.1 10 19.0 N 9 15 5 8 1010.3 1009.6 0.0
22/11:30am 37.1 33.3 -1.0 9 18.9 N 9 17 5 9 1010.5 1009.8 0.0
22/11:00am 36.1 32.4 -0.3 10 18.1 N 9 13 5 7 1010.7 1010.0 0.0
22/10:30am 35.5 32.1 -0.8 10 17.9 ENE 7 11 4 6 1010.8 1010.1 0.0
22/10:00am 33.6 30.2 -0.9 11 16.7 E 7 11 4 6 1010.9 1010.2 0.0
22/09:30am 32.2 28.4 -0.8 12 15.9 NE 9 15 5 8 1010.8 1010.1 0.0
22/09:00am 31.1 26.4 -1.6 12 15.4 NE 13 17 7 9 1010.8 1010.1 0.0
22/08:30am 29.7 25.8 -1.6 13 14.6 NE 9 13 5 7 1010.6 1009.9 0.0
22/08:00am 27.4 24.1 -1.5 15 13.3 ENE 6 7 3 4 1010.2 1009.5 0.0
22/07:30am 24.8 20.7 -0.4 19 11.6 NE 11 13 6 7 1009.9 1009.2 0.0
22/07:00am 22.7 18.8 -1.4 20 10.7 ENE 9 11 5 6 1009.8 1009.1 0.0
22/06:30am 23.3 19.1 -0.9 20 10.9 E 11 11 6 6 1009.8 1009.1 0.0
22/06:00am 24.0 20.2 -1.0 19 11.3 E 9 11 5 6 1009.7 1009.0 0.0
22/05:30am 23.1 19.9 -0.4 21 10.6 SSE 6 7 3 4 1010.0 1009.3 0.0
22/05:00am 24.1 20.8 -0.2 20 11.1 S 7 9 4 5 1009.8 1009.1 0.0
22/04:30am 25.1 21.8 -0.1 19 11.7 SW 7 9 4 5 1009.8 1009.1 0.0
22/04:00am 24.9 21.7 -0.3 19 11.6 SSW 6 9 3 5 1009.7 1009.0 0.0
22/03:30am 25.4 22.0 -0.6 18 12.0 SSW 7 9 4 5 1009.9 1009.2 0.0
22/03:00am 26.8 23.0 -1.1 16 12.8 SSW 9 9 5 5 1009.9 1009.2 0.0
22/02:30am 28.6 25.2 -0.5 15 13.7 SSE 7 9 4 5 1009.9 1009.2 0.0
22/02:00am 29.4 25.6 -0.9 14 14.3 SSE 9 11 5 6 1009.9 1009.2 0.0
22/01:30am 30.1 26.4 -0.3 14 14.5 SSE 9 11 5 6 1009.9 1009.2 0.0
22/01:00am 31.1 26.6 -0.5 13 15.2 SSE 13 19 7 10 1009.9 1009.2 0.0
22/12:30am 31.6 26.8 -0.1 13 15.4 S 15 20 8 11 1010.1 1009.4 0.0
22/12:00am 32.0 27.2 0.2 13 15.6 SSE 15 20 8 11 1010.0 1009.3 0.0
 
Date/Time
CDT
Temp
°C
App
Temp
°C
Dew
Point
°C
Rel
Hum
%
Delta-T
°C
Wind Press
QNH
hPa
Press
MSL
hPa
Rain since
9am
mm
Dir  Spd
km/h
Gust
km/h
Spd
kts
Gust
kts
21/11:30pm 32.5 25.9 -0.5 12 16.0 S 24 32 13 17 1010.2 1009.5 0.0
21/11:00pm 33.1 26.5 -0.1 12 16.3 S 24 32 13 17 1010.0 1009.3 0.0
21/10:30pm 33.8 27.7 0.5 12 16.6 S 22 32 12 17 1009.8 1009.1 0.0
21/10:00pm 34.6 27.7 -0.1 11 17.2 S 26 35 14 19 1009.5 1008.7 0.0
21/09:30pm 34.8 28.3 0.0 11 17.3 S 24 35 13 19 1009.1 1008.3 0.0
21/09:00pm 35.6 28.2 -0.7 10 17.9 S 28 39 15 21 1008.8 1008.0 0.0
21/08:30pm 36.7 28.7 0.1 10 18.4 SSW 32 44 17 24 1008.4 1007.6 0.0
21/08:00pm 37.4 29.0 -0.8 9 19.0 SSW 33 46 18 25 1008.2 1007.4 0.0
21/07:41pm 38.4 31.1 0.0 9 19.5 S 28 43 15 23 1007.8 1007.0 0.0
21/07:30pm 39.1 34.0 0.5 9 19.8 SW 17 24 9 13 1007.7 1006.9 0.0

Other formats

Comma delimited format used in spreadsheet applications
http://www.bom.gov.au/fwo/IDS60801/IDS60801.94655.axf

JavaScript Object Notation format (JSON) in row-major order
http://www.bom.gov.au/fwo/IDS60801/IDS60801.94655.json

Data quality

Most of these data are generated automatically and are frequently updated. Quality checks on data are not normally performed. It is possible for incorrect values to appear. Refer to information at About Latest Weather Observations and please check the disclaimer before using these data.